sensor_id;sensor_type;location;lat;lon;timestamp;P1;durP1;ratioP1;P2;durP2;ratioP2
45784;SDS011;31489;51.404;5.474;2022-08-04T00:02:22;7.65;;;2.40;;
45784;SDS011;31489;51.404;5.474;2022-08-04T00:05:02;10.65;;;2.97;;
45784;SDS011;31489;51.404;5.474;2022-08-04T00:07:44;4.55;;;2.45;;
45784;SDS011;31489;51.404;5.474;2022-08-04T00:10:20;8.60;;;2.58;;
45784;SDS011;31489;51.404;5.474;2022-08-04T00:12:47;6.38;;;2.65;;
45784;SDS011;31489;51.404;5.474;2022-08-04T00:15:16;8.18;;;2.60;;
45784;SDS011;31489;51.404;5.474;2022-08-04T00:20:16;8.57;;;2.47;;
45784;SDS011;31489;51.404;5.474;2022-08-04T00:22:44;10.02;;;3.03;;
45784;SDS011;31489;51.404;5.474;2022-08-04T00:25:12;6.25;;;2.50;;
45784;SDS011;31489;51.404;5.474;2022-08-04T00:27:38;5.68;;;2.40;;
45784;SDS011;31489;51.404;5.474;2022-08-04T00:30:04;9.68;;;2.67;;
45784;SDS011;31489;51.404;5.474;2022-08-04T00:32:34;8.43;;;2.60;;
45784;SDS011;31489;51.404;5.474;2022-08-04T00:35:00;9.57;;;2.70;;
45784;SDS011;31489;51.404;5.474;2022-08-04T00:37:27;5.47;;;2.70;;
45784;SDS011;31489;51.404;5.474;2022-08-04T00:40:01;7.00;;;2.58;;
45784;SDS011;31489;51.404;5.474;2022-08-04T00:42:48;7.50;;;2.67;;
45784;SDS011;31489;51.404;5.474;2022-08-04T00:45:37;8.15;;;2.53;;
45784;SDS011;31489;51.404;5.474;2022-08-04T00:48:39;6.55;;;2.50;;
45784;SDS011;31489;51.404;5.474;2022-08-04T00:57:26;13.10;;;2.97;;
45784;SDS011;31489;51.404;5.474;2022-08-04T01:00:14;8.05;;;2.78;;
45784;SDS011;31489;51.404;5.474;2022-08-04T01:02:48;5.13;;;2.50;;
45784;SDS011;31489;51.404;5.474;2022-08-04T01:08:38;7.00;;;3.10;;
45784;SDS011;31489;51.404;5.474;2022-08-04T01:14:40;10.30;;;2.65;;
45784;SDS011;31489;51.404;5.474;2022-08-04T01:20:04;8.07;;;2.65;;
45784;SDS011;31489;51.404;5.474;2022-08-04T01:25:11;5.38;;;2.55;;
45784;SDS011;31489;51.404;5.474;2022-08-04T01:30:48;6.88;;;2.40;;
45784;SDS011;31489;51.404;5.474;2022-08-04T01:33:18;8.02;;;2.22;;
45784;SDS011;31489;51.404;5.474;2022-08-04T01:35:47;6.72;;;2.20;;
45784;SDS011;31489;51.404;5.474;2022-08-04T01:40:42;7.32;;;2.28;;
45784;SDS011;31489;51.404;5.474;2022-08-04T01:43:10;5.95;;;2.50;;
45784;SDS011;31489;51.404;5.474;2022-08-04T01:45:39;5.68;;;2.30;;
45784;SDS011;31489;51.404;5.474;2022-08-04T01:48:06;3.25;;;2.10;;
45784;SDS011;31489;51.404;5.474;2022-08-04T01:50:35;5.40;;;2.38;;
45784;SDS011;31489;51.404;5.474;2022-08-04T01:53:05;7.90;;;2.40;;
45784;SDS011;31489;51.404;5.474;2022-08-04T01:55:57;8.95;;;2.53;;
45784;SDS011;31489;51.404;5.474;2022-08-04T01:58:26;9.80;;;2.50;;
45784;SDS011;31489;51.404;5.474;2022-08-04T02:00:58;5.35;;;2.13;;
45784;SDS011;31489;51.404;5.474;2022-08-04T02:03:26;7.40;;;2.50;;
45784;SDS011;31489;51.404;5.474;2022-08-04T02:05:58;7.18;;;2.45;;
45784;SDS011;31489;51.404;5.474;2022-08-04T02:11:35;5.75;;;2.00;;
45784;SDS011;31489;51.404;5.474;2022-08-04T02:17:02;8.48;;;2.75;;
45784;SDS011;31489;51.404;5.474;2022-08-04T02:23:02;8.00;;;2.22;;
45784;SDS011;31489;51.404;5.474;2022-08-04T02:25:27;6.32;;;2.30;;
45784;SDS011;31489;51.404;5.474;2022-08-04T02:28:20;5.55;;;2.50;;
45784;SDS011;31489;51.404;5.474;2022-08-04T02:31:10;5.53;;;2.40;;
45784;SDS011;31489;51.404;5.474;2022-08-04T02:33:44;7.65;;;2.55;;
45784;SDS011;31489;51.404;5.474;2022-08-04T02:36:25;6.20;;;2.42;;
45784;SDS011;31489;51.404;5.474;2022-08-04T02:38:55;7.20;;;2.33;;
45784;SDS011;31489;51.404;5.474;2022-08-04T02:41:25;7.63;;;2.50;;
45784;SDS011;31489;51.404;5.474;2022-08-04T02:43:57;7.55;;;2.40;;
45784;SDS011;31489;51.404;5.474;2022-08-04T02:46:25;7.93;;;2.50;;
45784;SDS011;31489;51.404;5.474;2022-08-04T02:48:53;5.28;;;2.25;;
45784;SDS011;31489;51.404;5.474;2022-08-04T02:51:25;7.55;;;2.30;;
45784;SDS011;31489;51.404;5.474;2022-08-04T02:53:54;7.18;;;2.20;;
45784;SDS011;31489;51.404;5.474;2022-08-04T02:56:22;8.13;;;2.72;;
45784;SDS011;31489;51.404;5.474;2022-08-04T02:59:00;6.35;;;2.38;;
45784;SDS011;31489;51.404;5.474;2022-08-04T03:01:31;8.55;;;2.70;;
45784;SDS011;31489;51.404;5.474;2022-08-04T03:09:57;5.03;;;2.38;;
45784;SDS011;31489;51.404;5.474;2022-08-04T03:12:44;9.80;;;2.55;;
45784;SDS011;31489;51.404;5.474;2022-08-04T03:38:12;5.63;;;2.92;;
45784;SDS011;31489;51.404;5.474;2022-08-04T03:55:00;6.05;;;2.13;;
45784;SDS011;31489;51.404;5.474;2022-08-04T03:57:37;9.15;;;2.40;;
45784;SDS011;31489;51.404;5.474;2022-08-04T04:00:18;8.32;;;2.50;;
45784;SDS011;31489;51.404;5.474;2022-08-04T04:05:41;7.97;;;2.60;;
45784;SDS011;31489;51.404;5.474;2022-08-04T04:13:29;7.05;;;2.40;;
45784;SDS011;31489;51.404;5.474;2022-08-04T04:25:11;7.45;;;2.80;;
45784;SDS011;31489;51.404;5.474;2022-08-04T04:30:29;7.10;;;2.72;;
45784;SDS011;31489;51.404;5.474;2022-08-04T04:40:58;6.57;;;2.38;;
45784;SDS011;31489;51.404;5.474;2022-08-04T04:43:53;6.70;;;2.95;;
45784;SDS011;31489;51.404;5.474;2022-08-04T04:49:48;8.25;;;2.72;;
45784;SDS011;31489;51.404;5.474;2022-08-04T04:55:09;8.48;;;2.22;;
45784;SDS011;31489;51.404;5.474;2022-08-04T04:57:47;8.20;;;2.40;;
45784;SDS011;31489;51.404;5.474;2022-08-04T05:00:16;8.32;;;2.22;;
45784;SDS011;31489;51.404;5.474;2022-08-04T05:16:11;4.55;;;2.10;;
45784;SDS011;31489;51.404;5.474;2022-08-04T05:22:05;8.63;;;2.58;;
45784;SDS011;31489;51.404;5.474;2022-08-04T05:24:36;5.70;;;2.30;;
45784;SDS011;31489;51.404;5.474;2022-08-04T05:30:03;9.23;;;2.50;;
45784;SDS011;31489;51.404;5.474;2022-08-04T05:32:46;8.20;;;2.40;;
45784;SDS011;31489;51.404;5.474;2022-08-04T05:35:23;6.05;;;2.38;;
45784;SDS011;31489;51.404;5.474;2022-08-04T05:37:55;5.75;;;2.47;;
45784;SDS011;31489;51.404;5.474;2022-08-04T05:40:22;7.75;;;2.00;;
45784;SDS011;31489;51.404;5.474;2022-08-04T05:42:51;5.65;;;2.40;;
45784;SDS011;31489;51.404;5.474;2022-08-04T05:45:20;7.00;;;2.60;;
45784;SDS011;31489;51.404;5.474;2022-08-04T05:47:48;5.05;;;1.95;;
45784;SDS011;31489;51.404;5.474;2022-08-04T05:50:17;11.82;;;2.35;;
45784;SDS011;31489;51.404;5.474;2022-08-04T05:52:44;6.28;;;2.35;;
45784;SDS011;31489;51.404;5.474;2022-08-04T05:55:11;5.38;;;2.00;;
45784;SDS011;31489;51.404;5.474;2022-08-04T05:57:38;7.90;;;3.08;;
45784;SDS011;31489;51.404;5.474;2022-08-04T06:00:05;8.25;;;2.60;;
45784;SDS011;31489;51.404;5.474;2022-08-04T06:02:33;10.68;;;2.80;;
45784;SDS011;31489;51.404;5.474;2022-08-04T06:05:01;12.93;;;2.70;;
45784;SDS011;31489;51.404;5.474;2022-08-04T06:07:29;10.93;;;3.00;;
45784;SDS011;31489;51.404;5.474;2022-08-04T06:09:58;10.77;;;2.80;;
45784;SDS011;31489;51.404;5.474;2022-08-04T06:12:28;10.52;;;2.60;;
45784;SDS011;31489;51.404;5.474;2022-08-04T06:15:00;8.37;;;2.53;;
45784;SDS011;31489;51.404;5.474;2022-08-04T06:17:30;5.95;;;2.30;;
45784;SDS011;31489;51.404;5.474;2022-08-04T06:19:58;8.20;;;2.67;;
45784;SDS011;31489;51.404;5.474;2022-08-04T06:22:28;8.20;;;2.80;;
45784;SDS011;31489;51.404;5.474;2022-08-04T06:24:56;6.18;;;2.72;;
45784;SDS011;31489;51.404;5.474;2022-08-04T06:27:23;9.68;;;2.92;;
45784;SDS011;31489;51.404;5.474;2022-08-04T06:29:50;6.57;;;2.65;;
45784;SDS011;31489;51.404;5.474;2022-08-04T06:32:20;12.00;;;2.50;;
45784;SDS011;31489;51.404;5.474;2022-08-04T06:35:01;9.23;;;2.72;;
45784;SDS011;31489;51.404;5.474;2022-08-04T06:37:30;8.13;;;2.60;;
45784;SDS011;31489;51.404;5.474;2022-08-04T06:39:56;6.47;;;2.92;;
45784;SDS011;31489;51.404;5.474;2022-08-04T06:42:25;7.88;;;2.75;;
45784;SDS011;31489;51.404;5.474;2022-08-04T06:44:55;10.02;;;2.60;;
45784;SDS011;31489;51.404;5.474;2022-08-04T06:47:23;7.07;;;2.67;;
45784;SDS011;31489;51.404;5.474;2022-08-04T06:49:50;7.72;;;2.65;;
45784;SDS011;31489;51.404;5.474;2022-08-04T06:52:20;5.15;;;2.45;;
45784;SDS011;31489;51.404;5.474;2022-08-04T06:54:47;5.70;;;2.58;;
45784;SDS011;31489;51.404;5.474;2022-08-04T06:57:17;6.47;;;2.53;;
45784;SDS011;31489;51.404;5.474;2022-08-04T06:59:46;12.15;;;2.70;;
45784;SDS011;31489;51.404;5.474;2022-08-04T07:02:17;6.90;;;2.58;;
45784;SDS011;31489;51.404;5.474;2022-08-04T07:04:47;10.60;;;2.47;;
45784;SDS011;31489;51.404;5.474;2022-08-04T07:07:13;5.32;;;2.05;;
45784;SDS011;31489;51.404;5.474;2022-08-04T07:09:40;5.45;;;2.58;;
45784;SDS011;31489;51.404;5.474;2022-08-04T07:12:06;7.22;;;2.70;;
45784;SDS011;31489;51.404;5.474;2022-08-04T07:14:32;6.78;;;2.53;;
45784;SDS011;31489;51.404;5.474;2022-08-04T07:17:02;7.50;;;2.35;;
45784;SDS011;31489;51.404;5.474;2022-08-04T07:19:30;9.05;;;2.42;;
45784;SDS011;31489;51.404;5.474;2022-08-04T07:21:57;9.60;;;2.95;;
45784;SDS011;31489;51.404;5.474;2022-08-04T07:24:31;6.60;;;2.30;;
45784;SDS011;31489;51.404;5.474;2022-08-04T07:26:58;6.70;;;2.50;;
45784;SDS011;31489;51.404;5.474;2022-08-04T07:29:24;9.05;;;2.72;;
45784;SDS011;31489;51.404;5.474;2022-08-04T07:31:50;9.25;;;2.70;;
45784;SDS011;31489;51.404;5.474;2022-08-04T07:34:17;7.47;;;3.05;;
45784;SDS011;31489;51.404;5.474;2022-08-04T07:36:44;9.10;;;3.22;;
45784;SDS011;31489;51.404;5.474;2022-08-04T07:39:09;11.43;;;3.40;;
45784;SDS011;31489;51.404;5.474;2022-08-04T07:41:35;9.23;;;4.07;;
45784;SDS011;31489;51.404;5.474;2022-08-04T07:44:02;9.57;;;3.63;;
45784;SDS011;31489;51.404;5.474;2022-08-04T07:46:28;8.90;;;3.50;;
45784;SDS011;31489;51.404;5.474;2022-08-04T07:48:55;10.45;;;4.65;;
45784;SDS011;31489;51.404;5.474;2022-08-04T07:51:22;9.90;;;4.22;;
45784;SDS011;31489;51.404;5.474;2022-08-04T07:53:51;8.48;;;4.43;;
45784;SDS011;31489;51.404;5.474;2022-08-04T07:56:21;11.88;;;4.68;;
45784;SDS011;31489;51.404;5.474;2022-08-04T07:58:46;12.65;;;4.90;;
45784;SDS011;31489;51.404;5.474;2022-08-04T08:01:17;10.38;;;4.53;;
45784;SDS011;31489;51.404;5.474;2022-08-04T08:03:48;14.73;;;5.20;;
45784;SDS011;31489;51.404;5.474;2022-08-04T08:06:16;14.77;;;5.30;;
45784;SDS011;31489;51.404;5.474;2022-08-04T08:08:42;8.27;;;4.75;;
45784;SDS011;31489;51.404;5.474;2022-08-04T08:11:08;10.93;;;5.05;;
45784;SDS011;31489;51.404;5.474;2022-08-04T08:13:35;10.32;;;4.78;;
45784;SDS011;31489;51.404;5.474;2022-08-04T08:16:03;11.07;;;3.83;;
45784;SDS011;31489;51.404;5.474;2022-08-04T08:18:29;10.57;;;4.03;;
45784;SDS011;31489;51.404;5.474;2022-08-04T08:20:56;11.25;;;5.00;;
45784;SDS011;31489;51.404;5.474;2022-08-04T08:23:22;13.98;;;5.20;;
45784;SDS011;31489;51.404;5.474;2022-08-04T08:25:49;14.45;;;5.70;;
45784;SDS011;31489;51.404;5.474;2022-08-04T08:28:15;9.15;;;4.68;;
45784;SDS011;31489;51.404;5.474;2022-08-04T08:30:42;7.45;;;4.53;;
45784;SDS011;31489;51.404;5.474;2022-08-04T08:33:10;12.55;;;4.43;;
45784;SDS011;31489;51.404;5.474;2022-08-04T08:35:55;10.88;;;4.70;;
45784;SDS011;31489;51.404;5.474;2022-08-04T08:38:42;8.45;;;4.10;;
45784;SDS011;31489;51.404;5.474;2022-08-04T08:43:43;8.85;;;3.97;;
45784;SDS011;31489;51.404;5.474;2022-08-04T08:52:27;4.32;;;2.92;;
45784;SDS011;31489;51.404;5.474;2022-08-04T08:55:25;11.38;;;3.92;;
45784;SDS011;31489;51.404;5.474;2022-08-04T09:03:20;11.47;;;3.40;;
45784;SDS011;31489;51.404;5.474;2022-08-04T09:17:40;7.80;;;2.13;;
45784;SDS011;31489;51.404;5.474;2022-08-04T09:20:46;3.75;;;1.75;;
45784;SDS011;31489;51.404;5.474;2022-08-04T09:23:27;9.88;;;2.42;;
45784;SDS011;31489;51.404;5.474;2022-08-04T09:31:29;12.63;;;2.33;;
45784;SDS011;31489;51.404;5.474;2022-08-04T09:37:08;8.60;;;2.20;;
45784;SDS011;31489;51.404;5.474;2022-08-04T09:43:12;9.75;;;2.38;;
45784;SDS011;31489;51.404;5.474;2022-08-04T09:46:01;7.00;;;2.35;;
45784;SDS011;31489;51.404;5.474;2022-08-04T09:48:47;8.32;;;2.60;;
45784;SDS011;31489;51.404;5.474;2022-08-04T09:51:42;5.70;;;1.95;;
45784;SDS011;31489;51.404;5.474;2022-08-04T09:56:53;6.43;;;2.10;;
45784;SDS011;31489;51.404;5.474;2022-08-04T10:02:21;6.25;;;2.30;;
45784;SDS011;31489;51.404;5.474;2022-08-04T10:04:49;10.05;;;2.20;;
45784;SDS011;31489;51.404;5.474;2022-08-04T10:10:02;4.93;;;1.75;;
45784;SDS011;31489;51.404;5.474;2022-08-04T10:15:27;6.57;;;2.20;;
45784;SDS011;31489;51.404;5.474;2022-08-04T10:18:10;5.60;;;2.42;;
45784;SDS011;31489;51.404;5.474;2022-08-04T10:29:39;8.82;;;2.25;;
45784;SDS011;31489;51.404;5.474;2022-08-04T10:35:09;6.43;;;1.98;;
45784;SDS011;31489;51.404;5.474;2022-08-04T10:40:25;13.18;;;2.40;;
45784;SDS011;31489;51.404;5.474;2022-08-04T10:43:27;8.85;;;2.03;;
45784;SDS011;31489;51.404;5.474;2022-08-04T10:48:33;5.82;;;2.28;;
45784;SDS011;31489;51.404;5.474;2022-08-04T10:53:57;6.75;;;2.13;;
45784;SDS011;31489;51.404;5.474;2022-08-04T10:56:37;6.15;;;2.33;;
45784;SDS011;31489;51.404;5.474;2022-08-04T10:59:15;7.32;;;2.15;;
45784;SDS011;31489;51.404;5.474;2022-08-04T11:01:49;5.13;;;2.33;;
45784;SDS011;31489;51.404;5.474;2022-08-04T11:04:24;6.72;;;2.33;;
45784;SDS011;31489;51.404;5.474;2022-08-04T11:07:01;6.65;;;2.10;;
45784;SDS011;31489;51.404;5.474;2022-08-04T11:09:28;6.32;;;2.10;;
45784;SDS011;31489;51.404;5.474;2022-08-04T11:11:55;9.60;;;2.00;;
45784;SDS011;31489;51.404;5.474;2022-08-04T11:14:45;6.32;;;2.00;;
45784;SDS011;31489;51.404;5.474;2022-08-04T11:17:28;4.65;;;1.73;;
45784;SDS011;31489;51.404;5.474;2022-08-04T11:23:43;6.03;;;1.63;;
45784;SDS011;31489;51.404;5.474;2022-08-04T11:25:43;8.20;;;2.17;;
45784;SDS011;31489;51.404;5.474;2022-08-04T11:28:32;7.30;;;2.00;;
45784;SDS011;31489;51.404;5.474;2022-08-04T11:31:11;8.60;;;2.42;;
45784;SDS011;31489;51.404;5.474;2022-08-04T11:33:46;5.55;;;2.22;;
45784;SDS011;31489;51.404;5.474;2022-08-04T11:36:35;3.95;;;1.88;;
45784;SDS011;31489;51.404;5.474;2022-08-04T11:39:11;6.07;;;1.80;;
45784;SDS011;31489;51.404;5.474;2022-08-04T11:41:51;6.10;;;2.53;;
45784;SDS011;31489;51.404;5.474;2022-08-04T11:47:45;9.30;;;2.17;;
45784;SDS011;31489;51.404;5.474;2022-08-04T11:50:20;6.78;;;2.60;;
45784;SDS011;31489;51.404;5.474;2022-08-04T11:53:05;6.10;;;2.50;;
45784;SDS011;31489;51.404;5.474;2022-08-04T11:55:33;7.15;;;2.38;;
45784;SDS011;31489;51.404;5.474;2022-08-04T11:58:00;7.75;;;2.50;;
45784;SDS011;31489;51.404;5.474;2022-08-04T12:00:27;8.77;;;2.50;;
45784;SDS011;31489;51.404;5.474;2022-08-04T12:03:00;7.40;;;2.80;;
45784;SDS011;31489;51.404;5.474;2022-08-04T12:06:08;6.82;;;2.38;;
45784;SDS011;31489;51.404;5.474;2022-08-04T12:17:21;8.10;;;2.58;;
45784;SDS011;31489;51.404;5.474;2022-08-04T12:19:57;6.57;;;2.00;;
45784;SDS011;31489;51.404;5.474;2022-08-04T12:22:26;5.47;;;2.42;;
45784;SDS011;31489;51.404;5.474;2022-08-04T12:25:00;5.53;;;2.30;;
45784;SDS011;31489;51.404;5.474;2022-08-04T12:27:40;9.20;;;2.75;;
45784;SDS011;31489;51.404;5.474;2022-08-04T12:30:19;7.28;;;2.20;;
45784;SDS011;31489;51.404;5.474;2022-08-04T12:32:58;8.65;;;2.33;;
45784;SDS011;31489;51.404;5.474;2022-08-04T12:38:22;4.38;;;2.45;;
45784;SDS011;31489;51.404;5.474;2022-08-04T12:40:55;5.00;;;1.80;;
45784;SDS011;31489;51.404;5.474;2022-08-04T12:46:06;7.85;;;2.20;;
45784;SDS011;31489;51.404;5.474;2022-08-04T12:48:35;9.73;;;2.30;;
45784;SDS011;31489;51.404;5.474;2022-08-04T12:51:02;4.85;;;2.47;;
45784;SDS011;31489;51.404;5.474;2022-08-04T12:53:37;6.55;;;2.50;;
45784;SDS011;31489;51.404;5.474;2022-08-04T12:56:04;8.15;;;2.50;;
45784;SDS011;31489;51.404;5.474;2022-08-04T12:58:32;7.65;;;2.60;;
45784;SDS011;31489;51.404;5.474;2022-08-04T13:01:06;6.30;;;2.53;;
45784;SDS011;31489;51.404;5.474;2022-08-04T13:03:39;7.25;;;2.20;;
45784;SDS011;31489;51.404;5.474;2022-08-04T13:06:07;5.93;;;2.00;;
45784;SDS011;31489;51.404;5.474;2022-08-04T13:08:39;11.73;;;2.30;;
45784;SDS011;31489;51.404;5.474;2022-08-04T13:11:07;7.78;;;2.72;;
45784;SDS011;31489;51.404;5.474;2022-08-04T13:13:36;5.35;;;2.40;;
45784;SDS011;31489;51.404;5.474;2022-08-04T13:16:04;5.03;;;2.45;;
45784;SDS011;31489;51.404;5.474;2022-08-04T13:18:33;6.40;;;2.20;;
45784;SDS011;31489;51.404;5.474;2022-08-04T13:21:11;4.93;;;2.53;;
45784;SDS011;31489;51.404;5.474;2022-08-04T13:23:45;7.90;;;2.92;;
45784;SDS011;31489;51.404;5.474;2022-08-04T13:26:15;5.30;;;2.90;;
45784;SDS011;31489;51.404;5.474;2022-08-04T13:28:42;5.22;;;2.10;;
45784;SDS011;31489;51.404;5.474;2022-08-04T13:31:15;9.32;;;2.08;;
45784;SDS011;31489;51.404;5.474;2022-08-04T13:33:45;6.47;;;2.78;;
45784;SDS011;31489;51.404;5.474;2022-08-04T13:36:13;6.20;;;2.28;;
45784;SDS011;31489;51.404;5.474;2022-08-04T13:38:45;4.35;;;2.30;;
45784;SDS011;31489;51.404;5.474;2022-08-04T13:41:17;6.45;;;3.08;;
45784;SDS011;31489;51.404;5.474;2022-08-04T13:43:45;7.43;;;3.17;;
45784;SDS011;31489;51.404;5.474;2022-08-04T13:46:14;6.15;;;3.10;;
45784;SDS011;31489;51.404;5.474;2022-08-04T13:48:53;8.27;;;2.83;;
45784;SDS011;31489;51.404;5.474;2022-08-04T13:51:25;6.03;;;2.78;;
45784;SDS011;31489;51.404;5.474;2022-08-04T13:53:58;8.48;;;2.75;;
45784;SDS011;31489;51.404;5.474;2022-08-04T13:56:35;6.30;;;2.13;;
45784;SDS011;31489;51.404;5.474;2022-08-04T13:59:07;6.38;;;2.15;;
45784;SDS011;31489;51.404;5.474;2022-08-04T14:01:36;6.75;;;2.15;;
45784;SDS011;31489;51.404;5.474;2022-08-04T14:04:16;4.07;;;1.90;;
45784;SDS011;31489;51.404;5.474;2022-08-04T14:06:49;7.47;;;2.45;;
45784;SDS011;31489;51.404;5.474;2022-08-04T14:09:18;5.05;;;1.88;;
45784;SDS011;31489;51.404;5.474;2022-08-04T14:11:52;3.50;;;1.92;;
45784;SDS011;31489;51.404;5.474;2022-08-04T14:14:24;5.35;;;1.80;;
45784;SDS011;31489;51.404;5.474;2022-08-04T14:24:56;5.60;;;1.98;;
45784;SDS011;31489;51.404;5.474;2022-08-04T14:27:23;5.20;;;1.67;;
45784;SDS011;31489;51.404;5.474;2022-08-04T14:29:50;8.77;;;2.60;;
45784;SDS011;31489;51.404;5.474;2022-08-04T14:32:17;6.75;;;2.00;;
45784;SDS011;31489;51.404;5.474;2022-08-04T14:34:43;5.72;;;2.25;;
45784;SDS011;31489;51.404;5.474;2022-08-04T14:37:11;7.43;;;2.05;;
45784;SDS011;31489;51.404;5.474;2022-08-04T14:39:44;6.55;;;2.17;;
45784;SDS011;31489;51.404;5.474;2022-08-04T14:42:16;4.50;;;1.63;;
45784;SDS011;31489;51.404;5.474;2022-08-04T14:44:51;5.10;;;1.85;;
45784;SDS011;31489;51.404;5.474;2022-08-04T14:47:39;4.85;;;1.60;;
45784;SDS011;31489;51.404;5.474;2022-08-04T14:50:09;4.65;;;1.67;;
45784;SDS011;31489;51.404;5.474;2022-08-04T14:52:36;3.40;;;1.92;;
45784;SDS011;31489;51.404;5.474;2022-08-04T14:55:22;5.82;;;1.80;;
45784;SDS011;31489;51.404;5.474;2022-08-04T14:57:49;4.93;;;1.77;;
45784;SDS011;31489;51.404;5.474;2022-08-04T15:00:26;4.55;;;2.35;;
45784;SDS011;31489;51.404;5.474;2022-08-04T15:02:56;5.85;;;2.20;;
45784;SDS011;31489;51.404;5.474;2022-08-04T15:05:32;5.47;;;2.42;;
45784;SDS011;31489;51.404;5.474;2022-08-04T15:07:59;4.15;;;1.92;;
45784;SDS011;31489;51.404;5.474;2022-08-04T15:10:25;4.35;;;1.80;;
45784;SDS011;31489;51.404;5.474;2022-08-04T15:12:53;3.97;;;2.10;;
45784;SDS011;31489;51.404;5.474;2022-08-04T15:15:20;5.03;;;2.10;;
45784;SDS011;31489;51.404;5.474;2022-08-04T15:17:47;4.80;;;2.00;;
45784;SDS011;31489;51.404;5.474;2022-08-04T15:20:15;7.75;;;2.08;;
45784;SDS011;31489;51.404;5.474;2022-08-04T15:22:41;4.97;;;2.63;;
45784;SDS011;31489;51.404;5.474;2022-08-04T15:25:07;5.28;;;2.45;;
45784;SDS011;31489;51.404;5.474;2022-08-04T15:27:35;4.82;;;2.40;;
45784;SDS011;31489;51.404;5.474;2022-08-04T15:30:06;5.35;;;1.80;;
45784;SDS011;31489;51.404;5.474;2022-08-04T15:32:38;6.35;;;2.30;;
45784;SDS011;31489;51.404;5.474;2022-08-04T15:35:17;3.97;;;2.15;;
45784;SDS011;31489;51.404;5.474;2022-08-04T15:37:53;6.07;;;2.03;;
45784;SDS011;31489;51.404;5.474;2022-08-04T15:40:39;6.68;;;2.25;;
45784;SDS011;31489;51.404;5.474;2022-08-04T15:46:02;3.65;;;1.90;;
45784;SDS011;31489;51.404;5.474;2022-08-04T15:48:29;4.20;;;2.28;;
45784;SDS011;31489;51.404;5.474;2022-08-04T15:53:22;4.88;;;2.55;;
45784;SDS011;31489;51.404;5.474;2022-08-04T15:55:48;7.05;;;2.20;;
45784;SDS011;31489;51.404;5.474;2022-08-04T15:58:16;4.15;;;2.17;;
45784;SDS011;31489;51.404;5.474;2022-08-04T16:08:37;4.43;;;1.83;;
45784;SDS011;31489;51.404;5.474;2022-08-04T16:19:03;5.60;;;2.10;;
45784;SDS011;31489;51.404;5.474;2022-08-04T16:21:33;4.63;;;1.90;;
45784;SDS011;31489;51.404;5.474;2022-08-04T16:24:20;6.95;;;2.10;;
45784;SDS011;31489;51.404;5.474;2022-08-04T16:26:48;3.97;;;1.75;;
45784;SDS011;31489;51.404;5.474;2022-08-04T16:29:34;5.03;;;1.58;;
45784;SDS011;31489;51.404;5.474;2022-08-04T16:32:10;3.70;;;1.67;;
45784;SDS011;31489;51.404;5.474;2022-08-04T16:34:40;2.78;;;1.52;;
45784;SDS011;31489;51.404;5.474;2022-08-04T16:37:10;4.70;;;1.70;;
45784;SDS011;31489;51.404;5.474;2022-08-04T16:39:37;3.35;;;1.67;;
45784;SDS011;31489;51.404;5.474;2022-08-04T16:44:58;6.07;;;1.92;;
45784;SDS011;31489;51.404;5.474;2022-08-04T16:50:14;2.90;;;1.77;;
45784;SDS011;31489;51.404;5.474;2022-08-04T16:52:47;4.55;;;2.03;;
45784;SDS011;31489;51.404;5.474;2022-08-04T16:55:17;3.10;;;1.90;;
45784;SDS011;31489;51.404;5.474;2022-08-04T16:57:47;7.00;;;1.85;;
45784;SDS011;31489;51.404;5.474;2022-08-04T17:00:27;3.65;;;1.70;;
45784;SDS011;31489;51.404;5.474;2022-08-04T17:02:55;4.00;;;1.80;;
45784;SDS011;31489;51.404;5.474;2022-08-04T17:05:24;4.00;;;1.80;;
45784;SDS011;31489;51.404;5.474;2022-08-04T17:07:51;4.32;;;1.80;;
45784;SDS011;31489;51.404;5.474;2022-08-04T17:10:21;2.65;;;1.75;;
45784;SDS011;31489;51.404;5.474;2022-08-04T17:13:21;5.65;;;1.88;;
45784;SDS011;31489;51.404;5.474;2022-08-04T17:15:53;3.65;;;1.65;;
45784;SDS011;31489;51.404;5.474;2022-08-04T17:18:30;3.95;;;1.80;;
45784;SDS011;31489;51.404;5.474;2022-08-04T17:21:08;3.83;;;1.63;;
45784;SDS011;31489;51.404;5.474;2022-08-04T17:26:16;4.10;;;1.73;;
45784;SDS011;31489;51.404;5.474;2022-08-04T17:28:48;3.85;;;1.88;;
45784;SDS011;31489;51.404;5.474;2022-08-04T17:31:19;4.13;;;2.05;;
45784;SDS011;31489;51.404;5.474;2022-08-04T17:33:49;5.10;;;1.98;;
45784;SDS011;31489;51.404;5.474;2022-08-04T17:36:23;3.40;;;1.80;;
45784;SDS011;31489;51.404;5.474;2022-08-04T17:38:51;5.03;;;2.08;;
45784;SDS011;31489;51.404;5.474;2022-08-04T17:41:19;5.63;;;2.00;;
45784;SDS011;31489;51.404;5.474;2022-08-04T17:43:51;5.47;;;2.03;;
45784;SDS011;31489;51.404;5.474;2022-08-04T17:46:34;6.57;;;1.95;;
45784;SDS011;31489;51.404;5.474;2022-08-04T17:49:09;4.13;;;1.70;;
45784;SDS011;31489;51.404;5.474;2022-08-04T17:54:29;3.78;;;1.60;;
45784;SDS011;31489;51.404;5.474;2022-08-04T17:56:57;5.03;;;1.88;;
45784;SDS011;31489;51.404;5.474;2022-08-04T17:59:41;21.20;;;2.20;;
45784;SDS011;31489;51.404;5.474;2022-08-04T18:02:08;4.53;;;1.52;;
45784;SDS011;31489;51.404;5.474;2022-08-04T18:04:36;3.22;;;1.50;;
45784;SDS011;31489;51.404;5.474;2022-08-04T18:07:32;3.50;;;1.55;;
45784;SDS011;31489;51.404;5.474;2022-08-04T18:10:00;4.00;;;1.60;;
45784;SDS011;31489;51.404;5.474;2022-08-04T18:12:27;3.30;;;1.55;;
45784;SDS011;31489;51.404;5.474;2022-08-04T18:15:03;3.70;;;1.48;;
45784;SDS011;31489;51.404;5.474;2022-08-04T18:17:38;3.88;;;1.27;;
45784;SDS011;31489;51.404;5.474;2022-08-04T18:20:12;3.03;;;1.40;;
45784;SDS011;31489;51.404;5.474;2022-08-04T18:22:39;3.80;;;1.42;;
45784;SDS011;31489;51.404;5.474;2022-08-04T18:25:09;4.28;;;1.50;;
45784;SDS011;31489;51.404;5.474;2022-08-04T18:27:51;5.38;;;1.73;;
45784;SDS011;31489;51.404;5.474;2022-08-04T18:30:19;3.22;;;1.52;;
45784;SDS011;31489;51.404;5.474;2022-08-04T18:32:46;3.70;;;1.50;;
45784;SDS011;31489;51.404;5.474;2022-08-04T18:35:12;3.95;;;1.50;;
45784;SDS011;31489;51.404;5.474;2022-08-04T18:37:38;5.82;;;1.80;;
45784;SDS011;31489;51.404;5.474;2022-08-04T18:40:05;2.72;;;1.30;;
45784;SDS011;31489;51.404;5.474;2022-08-04T18:42:33;3.33;;;1.52;;
45784;SDS011;31489;51.404;5.474;2022-08-04T18:44:59;3.13;;;1.45;;
45784;SDS011;31489;51.404;5.474;2022-08-04T18:47:25;3.45;;;1.65;;
45784;SDS011;31489;51.404;5.474;2022-08-04T18:49:57;2.72;;;1.50;;
45784;SDS011;31489;51.404;5.474;2022-08-04T18:52:24;4.53;;;1.63;;
45784;SDS011;31489;51.404;5.474;2022-08-04T18:54:49;3.17;;;1.38;;
45784;SDS011;31489;51.404;5.474;2022-08-04T18:57:21;6.22;;;1.60;;
45784;SDS011;31489;51.404;5.474;2022-08-04T18:59:48;3.42;;;1.50;;
45784;SDS011;31489;51.404;5.474;2022-08-04T19:02:14;6.10;;;1.80;;
45784;SDS011;31489;51.404;5.474;2022-08-04T19:04:41;3.30;;;1.65;;
45784;SDS011;31489;51.404;5.474;2022-08-04T19:07:07;3.78;;;1.50;;
45784;SDS011;31489;51.404;5.474;2022-08-04T19:09:33;4.20;;;1.48;;
45784;SDS011;31489;51.404;5.474;2022-08-04T19:11:59;3.88;;;1.60;;
45784;SDS011;31489;51.404;5.474;2022-08-04T19:14:25;6.53;;;1.40;;
45784;SDS011;31489;51.404;5.474;2022-08-04T19:16:51;5.38;;;1.55;;
45784;SDS011;31489;51.404;5.474;2022-08-04T19:19:16;5.38;;;1.40;;
45784;SDS011;31489;51.404;5.474;2022-08-04T19:21:43;4.10;;;1.23;;
45784;SDS011;31489;51.404;5.474;2022-08-04T19:24:10;3.85;;;1.80;;
45784;SDS011;31489;51.404;5.474;2022-08-04T19:26:38;3.53;;;1.60;;
45784;SDS011;31489;51.404;5.474;2022-08-04T19:29:05;1.88;;;1.30;;
45784;SDS011;31489;51.404;5.474;2022-08-04T19:31:31;2.72;;;1.58;;
45784;SDS011;31489;51.404;5.474;2022-08-04T19:33:57;2.22;;;1.23;;
45784;SDS011;31489;51.404;5.474;2022-08-04T19:36:23;2.70;;;1.23;;
45784;SDS011;31489;51.404;5.474;2022-08-04T19:38:51;3.40;;;1.60;;